createdAt,value
2023-04-26T00:04:25.946Z,72.47
2023-04-26T00:09:55.104Z,71.68
2023-04-26T00:14:58.906Z,71.19
2023-04-26T00:27:18.870Z,71.09
2023-04-26T00:32:22.525Z,71.01
2023-04-26T00:37:26.105Z,71.33
2023-04-26T00:42:29.703Z,71.76
2023-04-26T00:47:34.232Z,72.17
2023-04-26T00:53:03.366Z,72.31
2023-04-26T00:58:07.411Z,72.85
2023-04-26T01:03:12.219Z,72.98
2023-04-26T01:08:21.143Z,73.41
2023-04-26T01:14:14.989Z,73.58
2023-04-26T01:19:19.288Z,73.04
2023-04-26T01:24:22.882Z,71.34
2023-04-26T01:29:27.735Z,70.80
2023-04-26T01:34:33.493Z,71.56
2023-04-26T01:39:37.328Z,72.18
2023-04-26T01:44:41.031Z,72.49
2023-04-26T01:49:44.633Z,72.20
2023-04-26T02:02:02.092Z,70.97
2023-04-26T02:07:06.787Z,71.11
2023-04-26T02:13:00.075Z,70.53
2023-04-26T02:18:39.571Z,70.71
2023-04-26T02:23:43.086Z,70.59
2023-04-26T02:28:55.787Z,70.45
2023-04-26T02:33:59.514Z,70.35
2023-04-26T02:39:06.152Z,70.29
2023-04-26T02:44:10.071Z,70.46
2023-04-26T03:14:03.440Z,70.49
2023-04-26T03:19:06.948Z,70.67
2023-04-26T03:24:16.793Z,70.62
2023-04-26T03:29:20.857Z,70.77
2023-04-26T03:34:33.579Z,70.80
2023-04-26T03:39:37.129Z,70.91
2023-04-26T03:44:40.730Z,70.99
2023-04-26T03:49:44.413Z,71.06
2023-04-26T03:56:09.785Z,70.98
2023-04-26T04:10:11.123Z,70.76
2023-04-26T04:15:14.733Z,70.73
2023-04-26T04:44:54.747Z,70.24
2023-04-26T04:49:59.199Z,70.14
2023-04-26T04:55:04.076Z,69.98
2023-04-26T05:01:02.245Z,69.83
2023-04-26T05:06:20.617Z,69.57
2023-04-26T05:11:25.517Z,69.44
2023-04-26T05:17:06.768Z,69.29
2023-04-26T05:22:10.318Z,69.01
2023-04-26T05:27:14.963Z,68.97
2023-04-26T05:33:09.065Z,68.66
2023-04-26T05:38:14.410Z,68.18
2023-04-26T05:44:08.417Z,67.77
2023-04-26T05:50:48.762Z,67.38
2023-04-26T06:10:47.628Z,66.07
2023-04-26T06:30:39.901Z,64.12
2023-04-26T06:36:13.422Z,63.33
2023-04-26T06:41:22.754Z,63.03
2023-04-26T06:46:26.359Z,62.68
2023-04-26T06:52:21.046Z,61.99
2023-04-26T06:58:16.592Z,60.22
2023-04-26T07:03:21.030Z,59.40
2023-04-26T07:09:15.806Z,60.79
2023-04-26T07:15:41.410Z,61.33
2023-04-26T07:21:03.974Z,61.10
2023-04-26T07:26:13.680Z,61.46
2023-04-26T07:40:05.316Z,61.60
2023-04-26T07:52:29.428Z,59.69
2023-04-26T07:58:33.155Z,59.39
2023-04-26T08:04:02.154Z,59.58
2023-04-26T08:09:06.324Z,59.05
2023-04-26T08:14:10.138Z,59.23
2023-04-26T08:20:10.007Z,58.63
2023-04-26T08:33:33.009Z,58.07
2023-04-26T08:39:09.109Z,57.03
2023-04-26T08:51:03.912Z,58.09
2023-04-26T08:57:46.317Z,58.46
2023-04-26T09:04:05.768Z,58.15
2023-04-26T09:09:39.236Z,57.05
2023-04-26T09:16:06.078Z,56.32
2023-04-26T09:35:39.640Z,50.44
2023-04-26T09:40:55.114Z,50.28
2023-04-26T09:45:59.761Z,51.15
2023-04-26T09:51:30.218Z,51.99
2023-04-26T09:57:29.472Z,52.24
2023-04-26T10:02:34.224Z,52.35
2023-04-26T10:07:38.323Z,52.33
2023-04-26T10:13:07.392Z,52.57
2023-04-26T10:19:32.978Z,52.24
2023-04-26T10:25:13.704Z,51.82
2023-04-26T10:38:01.538Z,53.75
2023-04-26T10:43:16.615Z,52.97
2023-04-26T10:49:41.357Z,53.27
2023-04-26T10:54:57.461Z,53.14
2023-04-26T11:00:17.436Z,51.82
2023-04-26T11:13:18.265Z,53.12
2023-04-26T11:19:07.241Z,53.86
2023-04-26T11:25:01.463Z,53.66
2023-04-26T11:31:09.136Z,53.33
2023-04-26T11:36:17.452Z,53.55
2023-04-26T11:41:24.553Z,54.25
2023-04-26T11:46:31.994Z,54.91
2023-04-26T11:51:37.359Z,55.08
2023-04-26T11:56:41.386Z,55.31
2023-04-26T12:01:54.776Z,55.33
2023-04-26T12:08:37.211Z,55.17
2023-04-26T12:13:42.032Z,54.33
2023-04-26T12:18:53.025Z,54.77
2023-04-26T12:23:59.094Z,55.49
2023-04-26T12:29:30.827Z,56.47
2023-04-26T12:35:25.604Z,56.45
2023-04-26T12:40:29.739Z,56.71
2023-04-26T12:46:24.701Z,56.67
2023-04-26T12:51:29.634Z,57.44
2023-04-26T12:56:38.233Z,57.98
2023-04-26T13:01:44.383Z,57.34
2023-04-26T13:06:49.085Z,55.75
2023-04-26T13:12:04.294Z,54.82
2023-04-26T13:17:11.391Z,54.78
2023-04-26T13:22:18.650Z,55.01
2023-04-26T13:27:25.712Z,54.63
2023-04-26T13:32:34.150Z,53.50
2023-04-26T13:44:48.962Z,53.83
2023-04-26T13:50:19.997Z,54.41
2023-04-26T13:56:17.596Z,54.90
2023-04-26T14:01:58.907Z,54.34
2023-04-26T14:07:04.132Z,54.47
2023-04-26T14:12:10.594Z,54.54
2023-04-26T14:17:14.642Z,54.76
2023-04-26T14:22:25.093Z,54.61
2023-04-26T14:27:28.721Z,54.22
2023-04-26T14:32:32.353Z,54.13
2023-04-26T14:37:36.283Z,54.30
2023-04-26T14:42:46.279Z,53.56
2023-04-26T14:48:44.063Z,53.15
2023-04-26T14:53:47.855Z,52.75
2023-04-26T14:58:52.250Z,52.84
2023-04-26T15:05:19.053Z,52.80
2023-04-26T15:19:20.901Z,53.97
2023-04-26T15:24:25.881Z,53.83
2023-04-26T15:30:30.794Z,53.41
2023-04-26T15:35:35.253Z,52.65
2023-04-26T15:40:40.022Z,47.49
2023-04-26T15:45:45.704Z,43.13
2023-04-26T15:51:11.618Z,41.10
2023-04-26T15:56:19.474Z,38.66
2023-04-26T16:08:39.873Z,41.29
2023-04-26T16:15:25.427Z,39.23
2023-04-26T16:21:43.499Z,35.60
2023-04-26T16:26:47.945Z,33.11
2023-04-26T16:31:52.513Z,32.58
2023-04-26T16:36:57.418Z,32.93
2023-04-26T16:56:13.761Z,32.68
2023-04-26T17:01:22.816Z,32.11
2023-04-26T17:06:37.686Z,32.31
2023-04-26T17:13:17.899Z,32.42
2023-04-26T17:18:47.180Z,33.09
2023-04-26T17:23:55.355Z,33.79
2023-04-26T17:29:55.800Z,34.37
2023-04-26T17:35:09.600Z,35.63
2023-04-26T17:54:35.511Z,40.68
2023-04-26T18:06:44.373Z,43.16
2023-04-26T18:11:50.382Z,43.56
2023-04-26T18:16:54.489Z,44.12
2023-04-26T18:21:58.627Z,44.79
2023-04-26T18:27:03.069Z,45.29
2023-04-26T18:32:07.453Z,46.18
2023-04-26T18:37:11.445Z,46.59
2023-04-26T18:42:40.476Z,47.15
2023-04-26T18:58:11.616Z,48.23
2023-04-26T19:03:15.342Z,48.73
2023-04-26T19:08:26.701Z,48.91
2023-04-26T19:22:07.876Z,49.29
2023-04-26T19:34:36.700Z,49.84
2023-04-26T19:39:46.990Z,50.60
2023-04-26T19:49:10.637Z,51.36
2023-04-26T19:54:14.975Z,51.60
2023-04-26T19:59:24.567Z,51.83
2023-04-26T20:04:28.211Z,52.35
2023-04-26T20:09:32.814Z,52.86
2023-04-26T20:14:37.768Z,53.70
2023-04-26T20:20:07.946Z,53.93
2023-04-26T20:25:12.743Z,54.63
2023-04-26T20:30:16.572Z,55.02
2023-04-26T20:35:20.116Z,56.04
2023-04-26T20:40:23.858Z,56.38
2023-04-26T20:45:30.923Z,57.09
2023-04-26T20:50:38.495Z,57.79
2023-04-26T20:55:42.648Z,58.10
2023-04-26T21:00:51.792Z,58.35
2023-04-26T21:05:55.454Z,58.94
2023-04-26T21:10:59.210Z,58.38
2023-04-26T21:16:06.122Z,59.14
2023-04-26T21:21:09.994Z,59.31
2023-04-26T21:26:14.373Z,59.78
2023-04-26T21:31:20.319Z,59.79
2023-04-26T21:36:25.934Z,59.21
2023-04-26T21:41:31.056Z,59.27
2023-04-26T21:46:36.927Z,59.44
2023-04-26T21:51:41.969Z,59.90
2023-04-26T21:56:48.018Z,59.60
2023-04-26T22:16:17.062Z,61.45
2023-04-26T22:25:48.594Z,66.34
2023-04-26T22:31:18.135Z,70.21
2023-04-26T22:36:21.848Z,68.24
2023-04-26T22:41:26.012Z,65.96
2023-04-26T23:09:35.139Z,62.82
2023-04-26T23:14:38.924Z,62.13
2023-04-26T23:20:33.130Z,61.67
2023-04-26T23:26:08.244Z,58.63
2023-04-26T23:32:44.605Z,57.12
2023-04-26T23:37:48.294Z,57.26
2023-04-26T23:42:52.131Z,58.63
2023-04-26T23:49:35.993Z,59.31
2023-04-26T23:54:39.712Z,59.87
2023-04-26T23:59:43.446Z,60.67
